Time;durP1;ratioP1;P1;durP2;ratioP2;P2;SDS_P1;SDS_P2;PMS_P1;PMS_P2;Temp;Humidity;BMP_temperature;BMP_pressure;BME280_temperature;BME280_humidity;BME280_pressure;Samples;Min_cycle;Max_cycle;Signal;HPM_P1;HPM_P2
2023/06/26 00:02:27;;;;;;;11.30;8.55;;;;;;;26.06;63.02;101091.47;5112626;27;20484;-63
2023/06/26 00:04:55;;;;;;;11.35;8.07;;;;;;;26.07;63.23;101079.13;5096533;28;20130;-64
2023/06/26 00:07:22;;;;;;;13.07;9.05;;;;;;;26.08;63.17;101079.94;5107052;28;20097;-65
2023/06/26 00:09:50;;;;;;;14.13;9.00;;;;;;;26.07;63.17;101078.31;5116300;28;20434;-64
2023/06/26 00:12:18;;;;;;;11.70;8.20;;;;;;;26.07;63.09;101075.50;5116358;27;20060;-64
2023/06/26 00:14:45;;;;;;;12.20;8.18;;;;;;;26.09;63.11;101079.56;5137039;27;20039;-66
2023/06/26 00:17:13;;;;;;;10.88;7.82;;;;;;;26.11;62.98;101082.78;5120612;27;20551;-64
2023/06/26 00:19:41;;;;;;;11.57;8.30;;;;;;;26.13;62.89;101079.63;5096095;28;20044;-64
2023/06/26 00:22:08;;;;;;;12.18;7.95;;;;;;;26.12;62.60;101098.38;5101611;27;20492;-65
2023/06/26 00:24:36;;;;;;;11.93;8.02;;;;;;;26.11;62.88;101087.56;5115170;28;20053;-64
2023/06/26 00:27:04;;;;;;;10.20;7.45;;;;;;;26.08;62.60;101085.53;5100486;27;20067;-63
2023/06/26 00:29:31;;;;;;;11.70;7.40;;;;;;;26.06;62.69;101083.09;5097313;27;20039;-64
2023/06/26 00:31:59;;;;;;;12.40;8.27;;;;;;;26.04;62.41;101079.06;5095885;28;20052;-65
2023/06/26 00:34:27;;;;;;;10.77;7.68;;;;;;;26.03;62.71;101080.25;5115639;27;20071;-64
2023/06/26 00:36:54;;;;;;;10.27;7.82;;;;;;;26.02;62.45;101084.19;5115107;28;20047;-63
2023/06/26 00:39:25;;;;;;;11.43;7.47;;;;;;;26.02;62.73;101075.81;5116942;27;20044;-64
2023/06/26 00:41:56;;;;;;;11.10;7.95;;;;;;;26.01;62.49;101077.00;5080578;28;20071;-64
2023/06/26 00:44:24;;;;;;;10.50;6.57;;;;;;;26.00;62.55;101075.38;5114125;27;20055;-65
2023/06/26 00:46:52;;;;;;;12.45;7.45;;;;;;;25.98;62.39;101077.72;5115074;28;20058;-64
2023/06/26 00:49:20;;;;;;;10.15;6.72;;;;;;;25.97;62.16;101073.31;5110460;28;20040;-64
2023/06/26 00:51:49;;;;;;;11.55;6.82;;;;;;;25.96;62.08;101074.50;5077487;28;20074;-64
2023/06/26 00:54:20;;;;;;;9.90;6.85;;;;;;;25.94;61.92;101077.66;5102428;27;20519;-65
2023/06/26 00:56:49;;;;;;;10.60;6.57;;;;;;;25.90;61.40;101083.19;5112967;28;20048;-64
2023/06/26 00:59:18;;;;;;;10.60;6.85;;;;;;;25.89;61.60;101084.34;5115779;28;20397;-65
2023/06/26 01:01:48;;;;;;;10.43;7.18;;;;;;;25.87;61.42;101078.31;5115535;28;20051;-64
2023/06/26 01:04:19;;;;;;;11.05;6.25;;;;;;;25.86;60.87;101075.91;5115843;27;20476;-65
2023/06/26 01:06:50;;;;;;;9.00;6.47;;;;;;;25.84;61.11;101084.59;5116688;27;20391;-63
2023/06/26 01:09:19;;;;;;;9.27;6.38;;;;;;;25.81;60.85;101076.97;5098157;28;20052;-64
2023/06/26 01:11:47;;;;;;;12.00;6.22;;;;;;;25.77;60.54;101078.88;5077034;28;20055;-64
2023/06/26 01:14:15;;;;;;;10.77;6.15;;;;;;;25.73;60.69;101084.34;5114845;27;20104;-65
2023/06/26 01:16:47;;;;;;;9.35;6.22;;;;;;;25.71;61.07;101092.31;5097803;28;20491;-64
2023/06/26 01:19:25;;;;;;;11.93;7.10;;;;;;;25.67;61.09;101096.19;5115167;28;20065;-62
2023/06/26 01:22:22;;;;;;;10.85;6.55;;;;;;;25.58;61.10;101098.38;5112002;28;20044;-63
2023/06/26 01:25:38;;;;;;;10.75;6.68;;;;;;;25.51;60.84;101097.03;5112854;27;20048;-63
2023/06/26 01:28:10;;;;;;;10.75;6.50;;;;;;;25.39;60.80;101107.50;5095802;28;20097;-65
2023/06/26 01:30:41;;;;;;;10.65;5.97;;;;;;;25.31;60.59;101102.94;5076782;28;20100;-64
2023/06/26 01:33:10;;;;;;;11.55;6.47;;;;;;;25.23;60.96;101104.72;5076382;28;20040;-63
2023/06/26 01:35:38;;;;;;;9.52;6.28;;;;;;;25.15;60.87;101102.91;5120082;27;20487;-63
2023/06/26 01:38:20;;;;;;;13.52;6.60;;;;;;;25.08;61.03;101109.91;5127499;27;20043;-64
2023/06/26 01:40:48;;;;;;;9.88;6.30;;;;;;;25.02;61.35;101111.34;5094774;28;20047;-63
2023/06/26 01:43:27;;;;;;;9.80;6.05;;;;;;;24.99;61.87;101114.88;5093178;28;20059;-63
2023/06/26 01:46:21;;;;;;;8.85;5.53;;;;;;;24.97;61.91;101111.63;5105614;27;20051;-64
2023/06/26 01:49:01;;;;;;;9.30;5.85;;;;;;;24.92;61.85;101123.06;5096021;28;20481;-65
2023/06/26 01:51:33;;;;;;;9.25;5.70;;;;;;;24.85;60.80;101134.03;5093924;28;20101;-65
2023/06/26 01:54:02;;;;;;;7.70;4.80;;;;;;;24.74;61.01;101133.72;5060454;28;20113;-64
2023/06/26 01:56:30;;;;;;;7.38;4.90;;;;;;;24.71;60.34;101128.88;5100514;27;20047;-63
2023/06/26 01:59:00;;;;;;;8.88;5.00;;;;;;;24.66;59.85;101143.06;5096329;28;20046;-63
2023/06/26 02:01:28;;;;;;;9.32;4.68;;;;;;;24.59;59.85;101131.72;5099946;28;20122;-63
2023/06/26 02:03:56;;;;;;;7.78;4.20;;;;;;;24.56;59.69;101147.16;5113322;27;20547;-64
2023/06/26 02:06:24;;;;;;;8.65;4.70;;;;;;;24.51;59.98;101141.88;5113080;27;20043;-64
2023/06/26 02:08:52;;;;;;;7.25;4.63;;;;;;;24.44;59.92;101150.00;5095119;28;20062;-64
2023/06/26 02:11:20;;;;;;;8.07;4.70;;;;;;;24.38;60.26;101149.41;5099796;28;20115;-63
2023/06/26 02:13:47;;;;;;;9.43;4.82;;;;;;;24.33;60.74;101140.50;5099406;28;20114;-65
2023/06/26 02:16:15;;;;;;;10.40;4.40;;;;;;;24.29;61.00;101145.16;5075819;28;20050;-64
2023/06/26 02:18:44;;;;;;;8.75;4.55;;;;;;;24.28;61.35;101143.53;5094307;28;20090;-64
2023/06/26 02:21:13;;;;;;;13.07;4.32;;;;;;;24.23;61.79;101145.41;5112402;28;20039;-63
2023/06/26 02:23:40;;;;;;;10.55;4.20;;;;;;;24.22;61.70;101146.59;5079491;28;20050;-64
2023/06/26 02:26:08;;;;;;;10.63;4.53;;;;;;;24.22;61.95;101140.19;5113458;28;20048;-63
2023/06/26 02:28:36;;;;;;;11.20;4.28;;;;;;;24.22;62.30;101145.75;5115525;27;20103;-63
2023/06/26 02:31:04;;;;;;;8.13;4.20;;;;;;;24.19;62.31;101141.69;5133563;27;20399;-65
2023/06/26 02:33:33;;;;;;;10.27;4.00;;;;;;;24.21;62.49;101149.72;5133095;27;20406;-65
2023/06/26 02:36:01;;;;;;;8.75;3.97;;;;;;;24.19;62.52;101138.91;5134591;27;20076;-64
2023/06/26 02:38:28;;;;;;;9.82;4.15;;;;;;;24.15;62.73;101140.81;5113808;27;20050;-63
2023/06/26 02:40:56;;;;;;;10.77;4.40;;;;;;;24.12;62.72;101152.63;5113648;28;20414;-65
2023/06/26 02:43:26;;;;;;;7.65;4.28;;;;;;;24.03;63.25;101143.63;5112430;28;20108;-64
2023/06/26 02:45:54;;;;;;;8.20;4.38;;;;;;;24.01;63.40;101151.50;5113872;28;20050;-65
2023/06/26 02:48:23;;;;;;;10.15;4.40;;;;;;;23.97;63.82;101154.19;5098795;28;20047;-64
2023/06/26 02:50:52;;;;;;;7.70;4.07;;;;;;;23.97;64.14;101161.72;5095622;28;20048;-65
2023/06/26 02:53:25;;;;;;;12.30;4.47;;;;;;;23.93;64.21;101163.56;5114357;28;20053;-64
2023/06/26 02:55:53;;;;;;;9.18;4.45;;;;;;;23.92;64.58;101165.56;5112306;28;20573;-65
2023/06/26 02:58:20;;;;;;;7.35;4.20;;;;;;;23.91;64.74;101175.06;5097993;28;20046;-65
2023/06/26 03:00:49;;;;;;;9.57;4.20;;;;;;;23.88;65.12;101170.19;5110017;28;20051;-65
2023/06/26 03:03:18;;;;;;;9.00;4.32;;;;;;;23.81;65.44;101175.53;5075848;28;20040;-64
2023/06/26 03:05:46;;;;;;;8.43;4.18;;;;;;;23.75;66.03;101177.75;5096386;28;20048;-65
2023/06/26 03:08:13;;;;;;;10.18;4.60;;;;;;;23.72;66.53;101172.88;5116440;28;20048;-63
2023/06/26 03:10:41;;;;;;;9.18;4.68;;;;;;;23.72;66.53;101178.44;5116649;27;20040;-64
2023/06/26 03:13:10;;;;;;;9.45;4.40;;;;;;;23.72;66.73;101177.63;5116598;28;20039;-64
2023/06/26 03:15:38;;;;;;;8.55;4.05;;;;;;;23.70;67.31;101177.97;5116694;28;20044;-64
2023/06/26 03:18:06;;;;;;;11.25;4.20;;;;;;;23.70;67.13;101175.19;5096782;28;20496;-65
2023/06/26 03:20:34;;;;;;;10.15;4.78;;;;;;;23.72;67.36;101178.44;5098782;27;20036;-63
2023/06/26 03:23:03;;;;;;;10.30;4.40;;;;;;;23.70;67.58;101175.19;5096210;28;20059;-64
2023/06/26 03:25:31;;;;;;;9.23;4.65;;;;;;;23.66;68.07;101179.00;5118934;27;20046;-65
2023/06/26 03:28:11;;;;;;;9.85;4.72;;;;;;;23.61;68.77;101180.03;5078916;28;20445;-63
2023/06/26 03:30:45;;;;;;;11.13;4.50;;;;;;;23.54;69.54;101186.19;5096344;28;20059;-64
2023/06/26 03:33:33;;;;;;;11.23;4.78;;;;;;;23.53;69.71;101186.56;5095729;28;20062;-64
2023/06/26 03:36:10;;;;;;;7.82;3.88;;;;;;;23.46;70.26;101180.75;5096524;28;20060;-63
2023/06/26 03:38:58;;;;;;;11.85;4.95;;;;;;;23.45;70.39;101177.16;5094989;27;20051;-63
2023/06/26 03:41:45;;;;;;;10.90;4.75;;;;;;;23.44;70.69;101180.28;5095728;28;20050;-63
2023/06/26 03:44:33;;;;;;;8.95;4.28;;;;;;;23.45;70.97;101179.13;5093158;28;20044;-63
2023/06/26 03:47:21;;;;;;;10.85;4.45;;;;;;;23.46;70.78;101176.00;5112954;28;20130;-64
2023/06/26 03:49:49;;;;;;;9.95;4.20;;;;;;;23.43;71.17;101173.09;5113349;27;20044;-65
2023/06/26 03:52:36;;;;;;;12.65;5.45;;;;;;;23.41;71.41;101178.22;5103378;27;20127;-63
2023/06/26 03:55:05;;;;;;;13.85;5.07;;;;;;;23.39;71.41;101175.75;5135833;27;20035;-65
2023/06/26 03:57:53;;;;;;;11.98;5.25;;;;;;;23.33;72.03;101177.97;5113772;28;20051;-63
2023/06/26 04:00:41;;;;;;;11.10;4.90;;;;;;;23.25;72.88;101192.78;5111811;28;20111;-65
2023/06/26 04:03:28;;;;;;;12.93;5.13;;;;;;;23.13;73.68;101184.41;5111896;28;20135;-64
2023/06/26 04:05:56;;;;;;;11.77;5.05;;;;;;;23.08;73.99;101195.75;5116393;28;20043;-65
2023/06/26 04:08:44;;;;;;;14.05;5.55;;;;;;;23.13;73.46;101201.09;5113776;28;20153;-63
2023/06/26 04:11:32;;;;;;;10.73;4.80;;;;;;;23.16;73.14;101201.22;5115588;28;20134;-63
2023/06/26 04:14:19;;;;;;;17.88;5.18;;;;;;;23.14;73.65;101211.06;5114967;28;20060;-66
2023/06/26 04:17:07;;;;;;;12.80;5.22;;;;;;;23.02;74.63;101213.78;5116057;28;20453;-65
2023/06/26 04:19:55;;;;;;;11.18;5.10;;;;;;;22.97;75.04;101214.81;5131874;27;20105;-65
2023/06/26 04:22:42;;;;;;;14.57;6.30;;;;;;;22.97;75.14;101221.19;5096006;28;20040;-63
2023/06/26 04:25:30;;;;;;;16.58;5.80;;;;;;;22.91;75.63;101228.09;5094859;28;20052;-64
2023/06/26 04:28:18;;;;;;;14.98;5.88;;;;;;;22.89;75.99;101227.63;5100731;27;20040;-63
2023/06/26 04:31:05;;;;;;;13.15;5.55;;;;;;;22.72;77.55;101236.13;5114859;27;20070;-63
2023/06/26 04:33:54;;;;;;;15.02;5.22;;;;;;;22.54;79.21;101236.28;5114280;28;20048;-63
2023/06/26 04:36:47;;;;;;;13.30;5.40;;;;;;;22.58;79.90;101232.81;5115729;28;20047;-64
2023/06/26 04:39:37;;;;;;;17.05;5.47;;;;;;;22.63;80.05;101240.94;5114622;28;20060;-62
2023/06/26 04:42:24;;;;;;;12.70;4.38;;;;;;;22.76;79.41;101242.63;5116094;27;20048;-61
2023/06/26 04:45:12;;;;;;;14.88;5.70;;;;;;;22.85;78.46;101246.16;5112165;28;20048;-61
2023/06/26 04:48:00;;;;;;;17.88;5.20;;;;;;;22.85;77.97;101251.72;5119777;27;20048;-60
2023/06/26 04:50:53;;;;;;;13.00;5.05;;;;;;;22.83;78.16;101256.78;5121589;28;20048;-62
2023/06/26 04:53:41;;;;;;;12.80;5.25;;;;;;;22.88;78.16;101262.13;5114941;28;20055;-64
2023/06/26 04:56:30;;;;;;;16.65;6.47;;;;;;;22.82;78.46;101268.22;5114964;27;20039;-62
2023/06/26 04:59:18;;;;;;;12.32;5.47;;;;;;;22.70;79.24;101267.00;5114538;28;20427;-66
2023/06/26 05:02:06;;;;;;;17.38;5.95;;;;;;;22.62;80.02;101267.91;5115257;28;20572;-66
2023/06/26 05:04:54;;;;;;;17.60;5.43;;;;;;;22.59;80.57;101265.00;5111923;27;20043;-65
2023/06/26 05:07:42;;;;;;;15.45;5.15;;;;;;;22.57;80.95;101270.09;5095026;28;20055;-65
2023/06/26 05:10:30;;;;;;;13.32;5.20;;;;;;;22.65;80.84;101274.75;5094065;28;20055;-64
2023/06/26 05:13:19;;;;;;;11.68;5.07;;;;;;;22.67;81.19;101278.81;5094551;28;20048;-66
2023/06/26 05:16:08;;;;;;;18.50;6.85;;;;;;;22.61;81.72;101279.34;5112872;27;20104;-64
2023/06/26 05:18:56;;;;;;;16.95;6.07;;;;;;;22.48;82.50;101281.25;5114821;28;20076;-64
2023/06/26 05:21:44;;;;;;;18.25;5.75;;;;;;;22.41;83.17;101290.13;4744522;28;10000104;-65
2023/06/26 05:24:32;;;;;;;17.25;6.22;;;;;;;22.38;83.00;101284.44;5103945;28;20066;-64
2023/06/26 05:27:21;;;;;;;17.45;6.00;;;;;;;22.21;83.99;101288.94;5089339;28;20401;-65
2023/06/26 05:30:10;;;;;;;21.30;6.00;;;;;;;22.29;83.60;101296.38;5090546;28;20137;-65
2023/06/26 05:33:00;;;;;;;20.95;6.13;;;;;;;22.18;83.70;101288.78;5075375;28;20055;-63
2023/06/26 05:35:49;;;;;;;18.25;5.57;;;;;;;22.17;84.47;101289.91;5093458;27;20113;-64
2023/06/26 05:38:37;;;;;;;19.40;5.63;;;;;;;22.24;84.25;101293.00;5109410;28;20054;-65
2023/06/26 05:41:25;;;;;;;18.88;6.05;;;;;;;22.36;83.39;101306.97;5111138;28;20479;-64
2023/06/26 05:44:12;;;;;;;19.55;6.13;;;;;;;22.34;83.25;101312.03;5119265;27;20063;-64
2023/06/26 05:47:00;;;;;;;19.88;5.95;;;;;;;22.21;83.98;101310.34;5110268;27;20713;-65
2023/06/26 05:49:48;;;;;;;15.15;5.07;;;;;;;22.23;84.51;101308.06;5108821;28;20126;-66
2023/06/26 05:52:36;;;;;;;19.48;6.25;;;;;;;22.26;84.10;101316.50;5109713;28;20047;-65
2023/06/26 05:55:24;;;;;;;15.80;5.20;;;;;;;22.32;83.79;101317.94;5116868;27;20074;-69
2023/06/26 05:58:12;;;;;;;22.90;6.25;;;;;;;22.34;83.27;101323.16;5117168;27;20058;-66
2023/06/26 06:01:00;;;;;;;23.05;6.60;;;;;;;22.31;83.38;101326.59;5109608;28;20081;-65
2023/06/26 06:03:47;;;;;;;20.13;6.00;;;;;;;22.25;83.06;101330.75;5096438;27;20054;-65
2023/06/26 06:06:35;;;;;;;17.40;5.97;;;;;;;22.12;83.15;101336.13;5111156;28;20043;-65
2023/06/26 06:09:23;;;;;;;22.10;6.22;;;;;;;22.08;83.42;101335.19;5121439;27;20043;-64
2023/06/26 06:12:11;;;;;;;17.63;5.57;;;;;;;21.98;83.23;101334.72;5130663;27;20055;-64
2023/06/26 06:14:58;;;;;;;15.65;5.10;;;;;;;22.01;83.00;101340.44;5111582;27;20151;-65
2023/06/26 06:17:46;;;;;;;20.10;6.25;;;;;;;22.01;83.01;101356.28;5091360;28;20087;-64
2023/06/26 06:20:34;;;;;;;18.05;5.10;;;;;;;21.98;83.04;101354.97;5088557;28;20090;-65
2023/06/26 06:23:23;;;;;;;22.45;5.68;;;;;;;21.96;83.53;101359.22;5108042;28;20059;-66
2023/06/26 06:26:11;;;;;;;18.23;5.82;;;;;;;21.98;83.28;101368.03;5096038;27;20445;-63
2023/06/26 06:28:58;;;;;;;19.45;5.47;;;;;;;22.02;82.59;101369.00;5110831;28;20143;-66
2023/06/26 06:31:46;;;;;;;14.75;5.15;;;;;;;21.94;83.00;101373.44;5112465;28;20082;-65
2023/06/26 06:34:34;;;;;;;18.60;5.50;;;;;;;21.97;83.26;101372.78;5109301;28;20078;-63
2023/06/26 06:37:22;;;;;;;18.23;5.85;;;;;;;22.04;82.57;101367.53;5104542;27;20058;-65
2023/06/26 06:40:10;;;;;;;18.63;5.22;;;;;;;22.02;83.03;101369.00;5119864;27;20134;-64
2023/06/26 06:42:58;;;;;;;17.02;5.13;;;;;;;22.07;82.12;101372.41;5109128;28;20131;-63
2023/06/26 06:45:46;;;;;;;15.18;5.05;;;;;;;22.03;81.47;101371.47;5091395;28;20052;-62
2023/06/26 06:48:34;;;;;;;15.50;5.05;;;;;;;22.07;81.31;101377.94;5108936;28;20047;-63
2023/06/26 06:51:21;;;;;;;18.88;5.07;;;;;;;22.03;80.58;101399.22;5104397;28;20062;-65
2023/06/26 06:54:09;;;;;;;13.43;4.60;;;;;;;21.89;80.24;101393.84;5090625;28;20052;-66
2023/06/26 06:56:57;;;;;;;16.02;4.32;;;;;;;21.79;78.55;101404.47;5096182;28;20050;-65
2023/06/26 06:59:44;;;;;;;17.05;5.38;;;;;;;21.81;78.97;101407.75;5086080;28;20071;-64
2023/06/26 07:02:32;;;;;;;13.45;4.32;;;;;;;21.78;80.03;101402.88;5093711;28;20043;-65
2023/06/26 07:05:20;;;;;;;16.85;4.68;;;;;;;22.00;80.26;101393.50;5111047;28;20083;-64
2023/06/26 07:08:08;;;;;;;14.73;4.95;;;;;;;22.00;78.64;101408.19;5103666;28;20589;-65
2023/06/26 07:10:56;;;;;;;12.45;4.55;;;;;;;22.00;78.22;101410.16;5113039;28;20061;-65
2023/06/26 07:13:44;;;;;;;13.77;4.75;;;;;;;22.06;78.41;101420.75;5111420;28;20135;-64
2023/06/26 07:16:34;;;;;;;16.25;4.85;;;;;;;22.09;77.59;101425.63;5103870;28;20055;-68
2023/06/26 07:19:22;;;;;;;17.63;4.57;;;;;;;21.97;78.12;101424.69;5103520;28;20044;-64
2023/06/26 07:22:09;;;;;;;13.32;4.40;;;;;;;22.04;77.87;101427.78;5106786;28;20105;-64
2023/06/26 07:24:57;;;;;;;8.63;3.95;;;;;;;22.18;77.04;101430.34;5106553;28;20135;-65
2023/06/26 07:27:45;;;;;;;11.27;3.50;;;;;;;22.27;76.19;101437.53;5111618;28;20054;-63
2023/06/26 07:30:33;;;;;;;12.07;4.20;;;;;;;22.37;76.11;101441.88;5110959;28;20496;-62
2023/06/26 07:33:20;;;;;;;12.18;3.88;;;;;;;22.42;75.81;101450.03;5114971;28;20507;-65
2023/06/26 07:36:08;;;;;;;11.25;3.90;;;;;;;22.44;76.74;101444.97;5093887;28;20123;-63
2023/06/26 07:38:56;;;;;;;12.95;3.97;;;;;;;22.43;76.61;101457.19;5091885;28;20517;-62
2023/06/26 07:41:44;;;;;;;12.45;4.00;;;;;;;22.43;77.10;101454.44;5110141;28;20143;-64
2023/06/26 07:44:32;;;;;;;9.07;3.80;;;;;;;22.44;76.70;101458.00;5093393;28;20056;-64
2023/06/26 07:47:19;;;;;;;8.52;4.03;;;;;;;22.37;74.84;101455.78;5075530;28;20052;-63
2023/06/26 07:50:07;;;;;;;8.75;3.60;;;;;;;22.39;75.47;101456.22;5105221;28;20124;-63
2023/06/26 07:52:55;;;;;;;10.57;4.07;;;;;;;22.38;75.74;101462.94;5115722;27;20052;-64
2023/06/26 07:55:43;;;;;;;10.25;4.07;;;;;;;22.37;75.90;101458.56;5116646;28;20039;-63
2023/06/26 07:58:31;;;;;;;8.75;3.58;;;;;;;22.42;76.36;101465.88;5116503;28;20098;-64
2023/06/26 08:01:18;;;;;;;11.20;4.65;;;;;;;22.49;76.82;101471.75;5111063;27;20043;-65
2023/06/26 08:04:06;;;;;;;14.20;4.70;;;;;;;22.49;77.04;101480.06;5134133;27;20082;-63
2023/06/26 08:06:56;;;;;;;7.55;3.60;;;;;;;22.40;77.09;101474.53;5136365;27;20082;-62
2023/06/26 08:09:44;;;;;;;7.80;3.80;;;;;;;22.39;78.16;101472.09;5083439;28;20410;-63
2023/06/26 08:12:32;;;;;;;8.70;3.80;;;;;;;22.40;77.64;101477.31;5092360;28;20105;-63
2023/06/26 08:15:19;;;;;;;9.52;3.58;;;;;;;22.46;77.15;101484.31;5092261;28;20090;-63
2023/06/26 08:18:07;;;;;;;13.43;3.83;;;;;;;22.50;75.49;101484.47;5095457;28;20044;-63
2023/06/26 08:20:55;;;;;;;9.90;3.58;;;;;;;22.57;75.14;101483.94;5096321;28;20052;-62
2023/06/26 08:23:43;;;;;;;7.82;3.72;;;;;;;22.63;73.54;101488.97;5092291;28;20492;-64
2023/06/26 08:26:30;;;;;;;7.57;3.70;;;;;;;22.67;71.35;101480.78;5094903;28;20079;-65
2023/06/26 08:29:18;;;;;;;6.90;3.45;;;;;;;22.70;70.81;101485.66;5104353;28;20118;-64
2023/06/26 08:32:06;;;;;;;6.05;3.05;;;;;;;22.68;68.12;101497.13;5125410;27;20563;-64
2023/06/26 08:34:53;;;;;;;8.93;2.85;;;;;;;22.59;64.25;101498.31;5136729;27;20078;-62
2023/06/26 08:37:41;;;;;;;5.18;2.65;;;;;;;22.52;62.23;101496.06;5135880;27;20059;-62
2023/06/26 08:40:29;;;;;;;5.30;2.53;;;;;;;22.50;62.37;101501.13;5100741;27;20095;-64
2023/06/26 08:43:16;;;;;;;5.80;2.88;;;;;;;22.45;63.32;101493.78;5092289;28;20088;-65
2023/06/26 08:46:04;;;;;;;6.13;2.15;;;;;;;22.47;64.19;101508.16;5095462;28;20579;-63
2023/06/26 08:48:56;;;;;;;3.85;2.50;;;;;;;22.50;63.19;101507.50;5098824;28;20510;-63
2023/06/26 08:51:49;;;;;;;8.70;2.58;;;;;;;22.50;62.67;101507.50;5115746;28;20040;-65
2023/06/26 08:54:44;;;;;;;8.05;2.90;;;;;;;22.53;61.94;101517.13;5112675;28;20480;-65
2023/06/26 08:57:32;;;;;;;7.35;2.20;;;;;;;22.49;60.95;101511.44;5115738;28;20140;-63
2023/06/26 09:00:20;;;;;;;6.63;2.28;;;;;;;22.55;61.43;101526.75;5103591;27;20407;-65
2023/06/26 09:03:09;;;;;;;5.82;2.70;;;;;;;22.59;60.65;101520.53;5094671;28;20682;-64
2023/06/26 09:05:57;;;;;;;6.40;2.40;;;;;;;22.62;58.77;101530.97;5095426;28;20052;-63
2023/06/26 09:08:45;;;;;;;7.35;2.20;;;;;;;22.66;58.36;101521.66;5091814;28;20036;-64
2023/06/26 09:11:33;;;;;;;3.90;2.08;;;;;;;22.68;59.02;101529.63;5106132;28;20484;-64
2023/06/26 09:14:21;;;;;;;6.97;2.35;;;;;;;22.66;59.72;101538.31;5094497;28;20048;-63
2023/06/26 09:17:08;;;;;;;5.85;2.40;;;;;;;22.67;58.12;101533.56;5094749;28;20059;-62
2023/06/26 09:19:56;;;;;;;7.10;2.38;;;;;;;22.65;54.82;101536.66;5092388;28;20043;-63
2023/06/26 09:22:48;;;;;;;6.05;2.45;;;;;;;22.68;56.24;101551.84;5091814;28;20492;-63
2023/06/26 09:25:39;;;;;;;5.93;2.35;;;;;;;22.65;57.22;101545.00;5105423;28;20047;-62
2023/06/26 09:28:31;;;;;;;8.77;2.72;;;;;;;22.60;59.63;101553.53;5126379;27;20047;-62
2023/06/26 09:31:20;;;;;;;7.60;2.22;;;;;;;22.55;58.86;101548.16;5107474;27;20056;-62
2023/06/26 09:34:32;;;;;;;4.68;2.00;;;;;;;22.52;57.03;101554.38;5093807;28;20083;-63
2023/06/26 09:37:20;;;;;;;7.20;2.33;;;;;;;22.43;56.34;101546.06;5077050;28;20508;-63
2023/06/26 09:40:08;;;;;;;6.00;2.75;;;;;;;22.41;57.27;101559.47;5090791;28;20476;-63
2023/06/26 09:43:03;;;;;;;9.85;2.22;;;;;;;22.48;55.98;101564.50;5098114;28;20064;-63
2023/06/26 09:45:53;;;;;;;5.32;2.10;;;;;;;22.55;54.97;101568.41;5111365;28;20139;-64
2023/06/26 09:48:40;;;;;;;6.38;2.45;;;;;;;22.58;52.87;101580.00;5111303;28;20483;-64
2023/06/26 09:51:33;;;;;;;5.63;2.03;;;;;;;22.69;54.85;101584.88;5109640;28;20063;-63
2023/06/26 09:54:22;;;;;;;7.63;2.40;;;;;;;22.76;54.35;101584.38;5090803;28;20125;-64
2023/06/26 09:57:16;;;;;;;5.43;2.25;;;;;;;22.85;54.19;101585.16;5092924;28;20089;-62
2023/06/26 10:00:04;;;;;;;7.28;2.58;;;;;;;22.75;54.80;101588.28;5104457;28;20056;-64
2023/06/26 10:03:01;;;;;;;6.47;2.55;;;;;;;22.62;55.73;101597.66;5094127;28;20076;-64
2023/06/26 10:05:50;;;;;;;6.00;2.20;;;;;;;22.60;54.95;101586.84;5090840;28;20097;-62
2023/06/26 10:08:39;;;;;;;5.00;2.22;;;;;;;22.63;54.13;101588.16;5091143;27;20050;-64
2023/06/26 10:11:49;;;;;;;4.00;2.05;;;;;;;22.57;55.43;101595.06;5100211;28;20093;-64
2023/06/26 10:14:42;;;;;;;16.48;3.58;;;;;;;22.51;54.68;101592.47;5093612;28;20079;-64
2023/06/26 10:17:36;;;;;;;10.07;4.05;;;;;;;22.53;53.23;101592.09;5092463;28;20044;-64
2023/06/26 10:20:26;;;;;;;10.13;4.15;;;;;;;22.64;52.42;101606.47;5094224;28;20044;-65
2023/06/26 10:23:15;;;;;;;20.15;5.10;;;;;;;22.76;52.34;101589.94;5120060;27;20491;-63
2023/06/26 10:26:03;;;;;;;11.43;3.35;;;;;;;22.84;53.60;101611.28;5110008;28;20047;-64
2023/06/26 10:28:52;;;;;;;6.38;2.50;;;;;;;22.91;52.38;101602.44;5111669;28;20048;-65
2023/06/26 10:31:40;;;;;;;8.45;2.40;;;;;;;22.94;48.33;101605.38;5103907;28;20105;-64
2023/06/26 10:34:28;;;;;;;9.07;2.78;;;;;;;22.92;48.61;101617.97;5094844;28;20117;-64
2023/06/26 10:37:16;;;;;;;21.42;8.68;;;;;;;22.88;47.58;101626.16;5121261;27;20051;-64
2023/06/26 10:40:05;;;;;;;17.63;6.38;;;;;;;22.85;47.92;101606.53;5133397;27;20061;-64
2023/06/26 10:43:08;;;;;;;12.75;5.30;;;;;;;22.88;46.61;101611.47;5119270;28;20064;-65
2023/06/26 10:45:55;;;;;;;17.75;6.75;;;;;;;22.91;44.37;101613.56;4755290;28;10000850;-64
2023/06/26 10:49:03;;;;;;;16.58;6.00;;;;;;;22.88;46.97;101623.38;5107448;28;20047;-65
2023/06/26 10:51:51;;;;;;;16.58;6.30;;;;;;;22.95;43.39;101642.34;5112680;28;20057;-64
2023/06/26 10:54:39;;;;;;;17.40;5.88;;;;;;;23.00;43.38;101631.06;5130079;28;20051;-65
2023/06/26 10:57:27;;;;;;;13.77;4.88;;;;;;;23.04;43.67;101633.97;5116082;28;20101;-65
2023/06/26 11:00:15;;;;;;;15.25;5.95;;;;;;;23.05;43.25;101630.06;5072512;28;20058;-65
2023/06/26 11:03:23;;;;;;;11.88;4.50;;;;;;;23.08;44.54;101619.09;5074720;28;20082;-65
2023/06/26 11:06:19;;;;;;;11.45;4.65;;;;;;;23.09;42.72;101631.00;5088343;28;20052;-65
2023/06/26 11:09:07;;;;;;;10.77;4.32;;;;;;;23.11;43.05;101621.19;5104785;28;20071;-65
2023/06/26 11:11:58;;;;;;;11.77;4.82;;;;;;;23.07;42.22;101650.00;5107410;28;20079;-66
2023/06/26 11:14:46;;;;;;;12.65;5.10;;;;;;;23.00;41.89;101644.16;5106718;28;20056;-64
2023/06/26 11:17:36;;;;;;;12.45;5.43;;;;;;;22.97;42.80;101642.81;5106126;28;20060;-65
2023/06/26 11:20:23;;;;;;;13.27;5.22;;;;;;;23.02;44.00;101637.09;5106723;28;20564;-65
2023/06/26 11:23:11;;;;;;;11.57;4.70;;;;;;;23.09;43.48;101642.97;5105805;28;20047;-64
2023/06/26 11:26:14;;;;;;;10.10;4.45;;;;;;;23.14;43.30;101639.19;5111805;28;20139;-65
2023/06/26 11:29:02;;;;;;;9.93;4.10;;;;;;;23.16;43.95;101653.53;5112455;27;20055;-65
2023/06/26 11:32:00;;;;;;;11.25;4.65;;;;;;;23.17;44.49;101656.00;5099372;28;20058;-63
2023/06/26 11:34:51;;;;;;;22.63;4.28;;;;;;;23.15;44.50;101654.72;5116638;28;20059;-66
2023/06/26 11:37:39;;;;;;;10.13;4.07;;;;;;;23.12;44.93;101660.94;5114936;28;20051;-65
2023/06/26 11:40:30;;;;;;;9.35;3.92;;;;;;;23.12;45.26;101656.19;5115431;27;20088;-63
2023/06/26 11:43:18;;;;;;;7.57;2.75;;;;;;;23.16;42.57;101656.31;5115994;28;20070;-65
2023/06/26 11:46:05;;;;;;;10.00;2.00;;;;;;;23.16;42.98;101679.41;5112562;28;20043;-64
2023/06/26 11:48:54;;;;;;;5.78;2.60;;;;;;;23.18;44.00;101677.09;5106392;28;20553;-66
2023/06/26 11:51:42;;;;;;;8.88;2.85;;;;;;;23.17;41.75;101671.88;5115189;27;20507;-63
2023/06/26 11:54:30;;;;;;;4.55;1.55;;;;;;;23.12;43.60;101688.75;5116651;28;20118;-63
2023/06/26 11:57:19;;;;;;;5.68;2.13;;;;;;;23.05;45.45;101699.56;5102235;28;20075;-65
2023/06/26 12:00:14;;;;;;;10.45;2.53;;;;;;;22.91;45.20;101697.75;5103529;27;20444;-63
2023/06/26 12:03:03;;;;;;;6.07;2.15;;;;;;;22.62;46.65;101715.13;5096684;28;20052;-65
2023/06/26 12:05:52;;;;;;;6.93;2.40;;;;;;;22.63;48.39;101710.38;5067969;28;20048;-64
2023/06/26 12:08:43;;;;;;;6.28;2.17;;;;;;;22.71;48.83;101713.16;5095914;28;20052;-63
2023/06/26 12:11:33;;;;;;;6.78;2.10;;;;;;;22.71;48.71;101712.34;5116195;27;20368;-65
2023/06/26 12:14:24;;;;;;;6.75;2.47;;;;;;;22.71;46.69;101712.34;5116127;28;20423;-64
2023/06/26 12:17:14;;;;;;;9.98;2.22;;;;;;;22.71;46.89;101710.38;5135550;27;20096;-64
2023/06/26 12:20:05;;;;;;;6.47;2.42;;;;;;;22.84;47.20;101716.91;5121857;27;20059;-65
2023/06/26 12:22:55;;;;;;;6.72;2.55;;;;;;;22.96;47.41;101727.34;5114759;28;20047;-65
2023/06/26 12:25:44;;;;;;;5.25;2.10;;;;;;;22.80;43.31;101729.84;5093672;28;20079;-63
2023/06/26 12:28:37;;;;;;;5.88;2.20;;;;;;;22.90;43.63;101731.44;5116404;28;20055;-63
2023/06/26 12:31:28;;;;;;;7.35;2.15;;;;;;;22.99;44.89;101725.88;5095141;28;20052;-64
2023/06/26 12:34:19;;;;;;;7.35;2.55;;;;;;;22.94;45.49;101726.84;5095276;28;20551;-64